Time;durP1;ratioP1;P1;durP2;ratioP2;P2;SDS_P1;SDS_P2;PMS_P1;PMS_P2;Temp;Humidity;BMP_temperature;BMP_pressure;BME280_temperature;BME280_humidity;BME280_pressure;Samples;Min_cycle;Max_cycle;Signal;HPM_P1;HPM_P2
2021/04/30 05:23:30;;;;;;;11.90;8.87;;;9.50;99.90;;;;;;5450244;23;20490;-43
2021/04/30 05:25:56;;;;;;;13.33;9.20;;;9.30;99.90;;;;;;5001584;28;20441;-43
2021/04/30 05:28:23;;;;;;;11.73;9.30;;;9.50;99.90;;;;;;5001495;28;20488;-44
2021/04/30 05:30:49;;;;;;;13.17;10.30;;;9.60;99.90;;;;;;5000973;28;20785;-42
2021/04/30 05:33:15;;;;;;;14.77;11.10;;;9.70;99.90;;;;;;5006417;28;20442;-45
2021/04/30 05:35:42;;;;;;;13.90;10.17;;;9.70;99.90;;;;;;5004832;28;20469;-45
2021/04/30 05:38:08;;;;;;;16.10;9.03;;;9.70;99.90;;;;;;5005617;28;20438;-50
2021/04/30 05:40:36;;;;;;;14.27;10.43;;;9.80;99.90;;;;;;5005112;28;20477;-46
2021/04/30 05:43:02;;;;;;;19.03;9.60;;;9.70;99.90;;;;;;5005497;28;20462;-44
2021/04/30 05:45:29;;;;;;;13.20;10.33;;;9.70;99.90;;;;;;4999457;28;20454;-46
2021/04/30 05:47:57;;;;;;;11.80;9.20;;;9.80;99.90;;;;;;5006405;28;20489;-51
2021/04/30 05:50:23;;;;;;;14.27;9.60;;;9.60;99.90;;;;;;5008105;28;20520;-45
2021/04/30 05:52:49;;;;;;;12.47;10.00;;;9.40;99.90;;;;;;5007662;28;20457;-49
2021/04/30 05:55:16;;;;;;;12.23;9.80;;;9.20;99.90;;;;;;5002088;28;20446;-47
2021/04/30 05:57:43;;;;;;;13.73;9.20;;;9.10;99.90;;;;;;5000710;28;20442;-46
2021/04/30 06:00:11;;;;;;;11.03;8.57;;;9.10;99.90;;;;;;4999860;28;20450;-44
2021/04/30 06:02:38;;;;;;;17.50;9.50;;;9.10;99.90;;;;;;4999447;28;20516;-43
2021/04/30 06:05:06;;;;;;;13.73;10.13;;;9.10;99.90;;;;;;5000094;28;20843;-46
2021/04/30 06:07:32;;;;;;;12.17;9.20;;;9.00;99.90;;;;;;5000244;28;20469;-62
2021/04/30 06:10:00;;;;;;;13.43;9.53;;;9.00;99.90;;;;;;5000487;28;20446;-60
2021/04/30 06:12:31;;;;;;;13.07;9.77;;;9.00;99.90;;;;;;5000480;28;20449;-61
2021/04/30 06:14:58;;;;;;;12.67;10.50;;;9.00;99.90;;;;;;5000540;28;20454;-62
2021/04/30 06:17:25;;;;;;;14.07;10.40;;;9.00;99.90;;;;;;5000363;28;20446;-61
2021/04/30 06:19:51;;;;;;;12.77;9.93;;;9.00;99.90;;;;;;4999349;28;20482;-61
2021/04/30 06:22:17;;;;;;;12.80;9.20;;;9.00;99.90;;;;;;4999668;28;20908;-61
2021/04/30 06:24:44;;;;;;;12.00;9.30;;;9.00;99.90;;;;;;5006919;28;20511;-60
2021/04/30 06:27:12;;;;;;;16.50;9.90;;;9.00;99.90;;;;;;5007806;28;20450;-61
2021/04/30 06:29:38;;;;;;;22.40;8.60;;;9.10;99.90;;;;;;5007471;28;20477;-60
2021/04/30 06:32:06;;;;;;;9.93;8.37;;;9.00;99.90;;;;;;5005840;28;20502;-62
2021/04/30 06:34:32;;;;;;;10.97;8.10;;;9.00;99.90;;;;;;5000668;28;20782;-61
2021/04/30 06:36:59;;;;;;;11.27;8.17;;;9.00;99.90;;;;;;4989930;28;20447;-61
2021/04/30 06:39:25;;;;;;;10.60;8.37;;;9.00;99.90;;;;;;4980312;28;20462;-61
2021/04/30 06:41:53;;;;;;;13.60;8.80;;;8.90;99.90;;;;;;4992856;28;20973;-61
2021/04/30 06:44:20;;;;;;;10.03;7.60;;;9.00;99.90;;;;;;5004949;28;20454;-61
2021/04/30 06:46:46;;;;;;;8.90;6.43;;;9.10;99.90;;;;;;5004050;28;20454;-61
2021/04/30 06:49:13;;;;;;;8.30;6.73;;;9.20;99.90;;;;;;5004297;28;20485;-61
2021/04/30 06:51:39;;;;;;;9.40;6.00;;;9.20;99.90;;;;;;4999701;28;20488;-61
2021/04/30 06:54:05;;;;;;;9.50;6.13;;;9.20;99.90;;;;;;4998653;28;20450;-63
2021/04/30 06:56:35;;;;;;;6.67;5.27;;;9.30;99.90;;;;;;4998350;28;20457;-61
2021/04/30 06:59:01;;;;;;;7.07;5.27;;;9.30;99.90;;;;;;4998973;28;21006;-62
2021/04/30 07:01:28;;;;;;;8.17;5.77;;;9.40;99.90;;;;;;5003954;28;20448;-62
2021/04/30 07:03:54;;;;;;;7.07;5.13;;;9.40;99.90;;;;;;5003557;28;20438;-62
2021/04/30 07:06:25;;;;;;;7.60;5.27;;;9.30;99.90;;;;;;4997489;28;20454;-62
2021/04/30 07:08:52;;;;;;;7.23;4.80;;;9.40;99.90;;;;;;4998468;28;20974;-60
2021/04/30 07:11:19;;;;;;;7.27;4.97;;;9.40;99.90;;;;;;5011165;28;20450;-61
2021/04/30 07:13:47;;;;;;;6.50;4.33;;;9.40;99.90;;;;;;4985914;28;20808;-61
2021/04/30 07:16:13;;;;;;;6.30;4.00;;;9.40;99.90;;;;;;4985474;28;20458;-61
2021/04/30 07:18:39;;;;;;;4.63;3.97;;;9.60;99.90;;;;;;4995317;28;20504;-61
2021/04/30 07:21:06;;;;;;;4.50;3.60;;;9.60;99.90;;;;;;5004997;28;20453;-60
2021/04/30 07:23:33;;;;;;;4.67;3.53;;;9.60;99.90;;;;;;5002548;28;20482;-60
2021/04/30 07:26:00;;;;;;;4.60;3.13;;;9.60;99.90;;;;;;5003549;28;20469;-61
2021/04/30 07:28:26;;;;;;;6.40;3.70;;;9.60;99.90;;;;;;5001404;28;20488;-61
2021/04/30 07:30:53;;;;;;;5.67;4.10;;;9.60;99.90;;;;;;5001976;28;20457;-57
2021/04/30 07:33:19;;;;;;;4.33;3.07;;;9.60;99.90;;;;;;4993169;28;20524;-58
2021/04/30 07:35:46;;;;;;;6.17;3.00;;;9.70;99.90;;;;;;4997160;28;20521;-57
2021/04/30 07:38:14;;;;;;;3.70;3.13;;;9.70;99.90;;;;;;4998993;28;20523;-56
2021/04/30 07:40:43;;;;;;;6.37;3.97;;;9.80;99.90;;;;;;5003515;28;20449;-57
2021/04/30 07:43:10;;;;;;;4.53;3.00;;;9.80;99.90;;;;;;4995854;28;20477;-58
2021/04/30 07:45:38;;;;;;;5.97;3.37;;;9.90;99.90;;;;;;5015406;28;20438;-58
2021/04/30 07:48:05;;;;;;;6.50;3.93;;;10.00;99.90;;;;;;5014378;28;20465;-58
2021/04/30 07:50:32;;;;;;;3.67;3.20;;;10.00;99.90;;;;;;5011532;28;20799;-59
2021/04/30 07:52:58;;;;;;;5.70;3.40;;;10.10;99.90;;;;;;5006155;28;20454;-57
2021/04/30 07:55:25;;;;;;;5.60;4.17;;;10.10;99.90;;;;;;4998659;28;20477;-56
2021/04/30 07:57:58;;;;;;;5.97;4.20;;;10.20;99.90;;;;;;5000510;28;20441;-58
2021/04/30 08:00:25;;;;;;;6.30;4.10;;;10.30;99.90;;;;;;5004751;28;20442;-59
2021/04/30 08:02:52;;;;;;;6.37;4.03;;;10.40;99.90;;;;;;5004526;28;20446;-60
2021/04/30 08:05:20;;;;;;;5.97;3.67;;;10.50;99.90;;;;;;5009157;28;20454;-61
2021/04/30 08:07:47;;;;;;;4.90;3.87;;;10.60;99.90;;;;;;4998999;28;20516;-59
2021/04/30 08:10:14;;;;;;;6.57;3.50;;;10.70;99.90;;;;;;5000933;28;20442;-59
2021/04/30 08:12:40;;;;;;;7.30;4.60;;;10.70;99.90;;;;;;5006635;28;20446;-59
2021/04/30 08:15:10;;;;;;;5.33;4.37;;;10.60;99.90;;;;;;5010429;28;20446;-59
2021/04/30 08:17:37;;;;;;;5.00;3.07;;;10.60;99.90;;;;;;5003920;28;20853;-56
2021/04/30 08:20:05;;;;;;;5.83;4.30;;;10.60;99.90;;;;;;5014287;28;20450;-54
2021/04/30 08:22:32;;;;;;;5.97;4.03;;;10.60;99.90;;;;;;5014753;28;20505;-55
2021/04/30 08:25:03;;;;;;;7.50;4.10;;;10.60;99.90;;;;;;5013296;28;20446;-59
2021/04/30 08:27:29;;;;;;;3.97;3.57;;;10.70;99.90;;;;;;5004461;28;20437;-59
2021/04/30 08:29:57;;;;;;;5.30;4.13;;;10.80;99.90;;;;;;5011850;28;20476;-57
2021/04/30 08:32:25;;;;;;;4.13;3.70;;;10.70;99.90;;;;;;5018622;28;20430;-59
2021/04/30 08:34:51;;;;;;;5.70;4.13;;;10.50;99.90;;;;;;5005228;28;20454;-60
2021/04/30 08:37:18;;;;;;;4.83;3.83;;;10.40;99.90;;;;;;5004278;28;20895;-60
2021/04/30 08:39:44;;;;;;;8.13;4.27;;;10.30;99.90;;;;;;5005365;28;20906;-58
2021/04/30 08:42:11;;;;;;;5.70;3.57;;;10.20;99.90;;;;;;5005447;28;20969;-59
2021/04/30 08:44:41;;;;;;;5.63;3.73;;;10.20;99.90;;;;;;5005526;28;20442;-60
2021/04/30 08:47:09;;;;;;;6.23;4.03;;;10.20;99.90;;;;;;5000609;28;20461;-59
2021/04/30 08:49:37;;;;;;;4.17;3.70;;;10.10;99.90;;;;;;5005369;28;20489;-59
2021/04/30 08:52:04;;;;;;;7.13;4.77;;;10.10;99.90;;;;;;5006594;28;20554;-59
2021/04/30 08:54:31;;;;;;;6.57;4.33;;;10.20;99.90;;;;;;5013276;28;20454;-59
2021/04/30 08:57:01;;;;;;;4.17;3.10;;;10.30;99.90;;;;;;5014141;28;20470;-59
2021/04/30 08:59:28;;;;;;;4.00;3.00;;;10.20;99.90;;;;;;5011135;28;20442;-58
2021/04/30 09:02:01;;;;;;;6.13;3.70;;;10.10;99.90;;;;;;5010948;28;20530;-59
2021/04/30 09:04:31;;;;;;;6.60;3.37;;;10.10;99.90;;;;;;4996855;28;20450;-60
2021/04/30 09:07:12;;;;;;;4.30;3.67;;;10.10;99.90;;;;;;4998664;28;20457;-56
2021/04/30 09:09:55;;;;;;;5.53;5.00;;;10.10;99.90;;;;;;5004660;28;20512;-60
2021/04/30 09:12:23;;;;;;;5.70;4.27;;;10.10;99.90;;;;;;5010799;28;20457;-59
2021/04/30 09:14:50;;;;;;;5.03;3.57;;;10.10;99.90;;;;;;5012665;28;20462;-52
2021/04/30 09:17:17;;;;;;;5.67;3.83;;;10.00;99.90;;;;;;5000438;28;20440;-49
2021/04/30 09:19:47;;;;;;;5.80;4.40;;;9.90;99.90;;;;;;4998737;28;20450;-48
2021/04/30 09:22:16;;;;;;;8.07;3.20;;;9.90;99.90;;;;;;4999220;28;20446;-50
2021/04/30 09:24:49;;;;;;;8.80;4.10;;;9.90;99.90;;;;;;5008267;28;20464;-45
2021/04/30 09:27:28;;;;;;;5.73;4.90;;;10.00;99.90;;;;;;4998367;28;21113;-48
2021/04/30 09:30:14;;;;;;;6.57;4.60;;;10.10;99.90;;;;;;4998571;28;20491;-43
2021/04/30 09:33:02;;;;;;;6.33;3.27;;;10.10;99.90;;;;;;4999222;28;20434;-48
2021/04/30 09:35:30;;;;;;;5.30;3.90;;;10.30;99.90;;;;;;5017296;28;20787;-47
2021/04/30 09:37:58;;;;;;;5.90;4.57;;;10.40;99.90;;;;;;5018122;28;20445;-46
2021/04/30 09:40:31;;;;;;;4.07;2.90;;;10.50;99.90;;;;;;5017557;28;20464;-48
2021/04/30 09:43:06;;;;;;;3.87;3.27;;;10.80;99.90;;;;;;5017928;28;20483;-44
2021/04/30 09:45:37;;;;;;;5.20;3.10;;;11.00;99.90;;;;;;5017042;28;20465;-45
2021/04/30 09:48:07;;;;;;;4.50;3.40;;;11.10;99.90;;;;;;4998263;28;20572;-46
2021/04/30 09:50:35;;;;;;;4.30;3.90;;;11.30;99.90;;;;;;4989294;28;20458;-46
2021/04/30 09:53:09;;;;;;;3.77;3.47;;;11.40;99.90;;;;;;5003579;28;20477;-49
2021/04/30 09:55:40;;;;;;;5.47;3.90;;;11.70;99.90;;;;;;5005821;28;20434;-47
2021/04/30 09:58:18;;;;;;;7.13;3.10;;;11.80;99.90;;;;;;4988213;28;20458;-50
2021/04/30 10:00:46;;;;;;;5.47;3.70;;;12.00;99.90;;;;;;4995562;28;20918;-47
2021/04/30 10:03:18;;;;;;;5.97;2.90;;;12.10;99.90;;;;;;4997548;28;20807;-51
2021/04/30 10:06:04;;;;;;;4.37;3.10;;;12.10;99.90;;;;;;4997432;28;20449;-49
2021/04/30 10:08:34;;;;;;;3.90;3.30;;;12.00;99.90;;;;;;4998795;28;20501;-46
2021/04/30 10:11:00;;;;;;;5.23;2.90;;;11.90;99.90;;;;;;4996003;28;20464;-46
2021/04/30 10:13:27;;;;;;;6.40;3.80;;;12.00;99.90;;;;;;4999538;28;20471;-50
2021/04/30 10:15:54;;;;;;;3.90;3.37;;;12.00;99.90;;;;;;4999726;28;20453;-44
2021/04/30 10:18:20;;;;;;;6.50;4.20;;;11.90;99.90;;;;;;4998265;28;20533;-47
2021/04/30 10:20:48;;;;;;;4.53;3.90;;;11.80;99.90;;;;;;4998274;28;20516;-46
2021/04/30 10:23:20;;;;;;;4.00;3.07;;;11.60;99.90;;;;;;4999182;28;20892;-47
2021/04/30 10:25:50;;;;;;;5.60;3.70;;;11.60;99.90;;;;;;5003471;28;20458;-49
2021/04/30 10:28:30;;;;;;;2.97;2.67;;;11.50;99.90;;;;;;5017613;28;20489;-51
2021/04/30 10:31:01;;;;;;;4.50;3.83;;;11.50;99.90;;;;;;5017746;28;20432;-51
2021/04/30 10:33:34;;;;;;;5.80;3.90;;;11.50;99.90;;;;;;5017856;28;20478;-49
2021/04/30 10:36:07;;;;;;;3.90;3.40;;;11.50;99.90;;;;;;5014228;28;20474;-48
2021/04/30 10:38:40;;;;;;;3.50;2.97;;;11.60;99.90;;;;;;5012088;28;20469;-50
2021/04/30 10:41:13;;;;;;;9.40;5.53;;;11.80;99.90;;;;;;5010831;28;20438;-46
2021/04/30 10:43:40;;;;;;;5.20;3.50;;;12.00;99.90;;;;;;5017672;28;20608;-48
2021/04/30 10:46:08;;;;;;;6.20;4.13;;;12.10;99.90;;;;;;5017301;28;20477;-52
2021/04/30 10:48:40;;;;;;;3.77;3.33;;;12.30;99.90;;;;;;5017519;28;20488;-51
2021/04/30 10:51:13;;;;;;;8.40;2.73;;;12.50;99.90;;;;;;5017862;28;20438;-49
2021/04/30 10:53:43;;;;;;;3.00;2.70;;;12.70;99.90;;;;;;5018018;28;20442;-46
2021/04/30 10:56:33;;;;;;;6.30;3.67;;;12.80;99.90;;;;;;5004143;28;20449;-52
2021/04/30 10:58:59;;;;;;;4.93;3.93;;;13.00;99.90;;;;;;5017863;28;20515;-50
2021/04/30 11:01:28;;;;;;;6.23;3.47;;;13.20;99.90;;;;;;5017806;28;20430;-48
2021/04/30 11:04:18;;;;;;;3.80;3.40;;;13.30;99.90;;;;;;5017536;28;20455;-52
2021/04/30 11:06:58;;;;;;;3.30;3.00;;;13.20;99.90;;;;;;5010816;28;20505;-49
2021/04/30 11:09:33;;;;;;;3.77;2.87;;;12.90;99.90;;;;;;4993815;28;20540;-44
2021/04/30 11:12:02;;;;;;;3.40;2.83;;;12.80;99.90;;;;;;4991768;28;20450;-50
2021/04/30 11:14:35;;;;;;;3.70;3.07;;;12.80;99.90;;;;;;4994336;28;20437;-50
2021/04/30 11:17:02;;;;;;;5.83;3.87;;;12.80;99.90;;;;;;4990841;28;20507;-50
2021/04/30 11:19:31;;;;;;;4.53;3.23;;;12.60;99.90;;;;;;4995914;28;20446;-49
2021/04/30 11:22:10;;;;;;;4.43;3.30;;;12.60;99.90;;;;;;4990283;28;20787;-51
2021/04/30 11:24:42;;;;;;;4.03;3.63;;;12.60;99.90;;;;;;5004483;28;20406;-49
2021/04/30 11:27:34;;;;;;;5.30;3.37;;;12.70;99.90;;;;;;5003904;28;20887;-47
2021/04/30 11:30:24;;;;;;;4.67;3.40;;;12.80;99.90;;;;;;4990919;28;20986;-50
2021/04/30 11:32:58;;;;;;;3.70;3.30;;;12.90;99.90;;;;;;4997460;28;20581;-44
2021/04/30 11:35:27;;;;;;;3.70;2.73;;;12.90;99.90;;;;;;4999589;28;20484;-51
2021/04/30 11:37:53;;;;;;;4.17;3.70;;;12.80;99.90;;;;;;4999473;28;20446;-48
2021/04/30 11:40:23;;;;;;;4.20;3.80;;;12.90;99.90;;;;;;5001883;28;20453;-48
2021/04/30 11:43:09;;;;;;;5.67;4.10;;;12.80;99.90;;;;;;5000546;28;20927;-50
2021/04/30 11:45:37;;;;;;;4.53;3.73;;;12.60;99.90;;;;;;5004251;28;20450;-54
2021/04/30 11:48:05;;;;;;;4.33;3.30;;;12.30;99.90;;;;;;4998499;28;20533;-45
2021/04/30 11:50:32;;;;;;;4.27;3.87;;;12.20;99.90;;;;;;5004161;28;20487;-51
2021/04/30 11:52:58;;;;;;;3.60;3.27;;;12.00;99.90;;;;;;5001818;28;20449;-47
2021/04/30 11:55:25;;;;;;;9.80;5.17;;;12.00;99.90;;;;;;5000145;28;20452;-47
2021/04/30 11:57:55;;;;;;;4.63;3.80;;;11.90;99.90;;;;;;5006489;28;20493;-42
2021/04/30 12:00:24;;;;;;;6.20;4.57;;;11.80;99.90;;;;;;4999789;28;20505;-43
2021/04/30 12:03:02;;;;;;;5.50;4.87;;;11.80;99.90;;;;;;4999855;28;20512;-48
2021/04/30 12:05:29;;;;;;;4.60;4.10;;;11.80;99.90;;;;;;4996087;28;20790;-46
2021/04/30 12:07:56;;;;;;;7.00;4.57;;;11.90;99.90;;;;;;5000289;28;20476;-52
2021/04/30 12:10:26;;;;;;;6.23;4.30;;;11.70;99.90;;;;;;5005235;28;20446;-47
2021/04/30 12:12:54;;;;;;;5.13;4.13;;;11.70;99.90;;;;;;4997570;28;20461;-48
2021/04/30 12:15:28;;;;;;;6.03;5.23;;;11.70;99.90;;;;;;5003091;28;20462;-50
2021/04/30 12:17:55;;;;;;;7.30;5.23;;;11.60;99.90;;;;;;5000928;28;20452;-50
2021/04/30 12:20:24;;;;;;;6.80;5.20;;;11.60;99.90;;;;;;5004946;28;20456;-46
2021/04/30 12:22:54;;;;;;;5.87;4.73;;;11.50;99.90;;;;;;5007940;28;20504;-46
2021/04/30 12:25:35;;;;;;;10.63;4.60;;;11.40;99.90;;;;;;5002395;28;20541;-51
2021/04/30 12:28:25;;;;;;;7.00;4.87;;;11.30;99.90;;;;;;4996915;28;20551;-47
2021/04/30 12:30:55;;;;;;;5.57;5.00;;;11.30;99.90;;;;;;5005774;28;20458;-47
2021/04/30 12:33:24;;;;;;;6.33;5.10;;;11.30;99.90;;;;;;5001743;28;20462;-44
2021/04/30 12:35:51;;;;;;;8.10;6.00;;;11.30;99.90;;;;;;4999735;28;20446;-46
2021/04/30 12:38:18;;;;;;;5.50;4.97;;;11.30;99.90;;;;;;4998113;28;20442;-49
2021/04/30 12:40:45;;;;;;;10.80;6.00;;;11.40;99.90;;;;;;5004374;28;20430;-42
2021/04/30 12:43:11;;;;;;;6.57;5.80;;;11.40;99.90;;;;;;5013798;28;20525;-42
2021/04/30 12:45:41;;;;;;;7.23;5.33;;;11.40;99.90;;;;;;5018157;28;20422;-41
2021/04/30 12:48:10;;;;;;;7.70;5.40;;;11.50;99.90;;;;;;5017641;28;20465;-41
2021/04/30 12:50:36;;;;;;;10.10;5.87;;;11.50;99.90;;;;;;5018174;28;20434;-41
2021/04/30 12:53:03;;;;;;;7.67;5.20;;;11.60;99.90;;;;;;5017159;28;20442;-44
2021/04/30 12:55:31;;;;;;;7.03;5.30;;;11.70;99.90;;;;;;5016313;28;20595;-42
2021/04/30 12:58:06;;;;;;;9.30;5.10;;;11.70;99.90;;;;;;5013922;28;20451;-42
2021/04/30 13:00:57;;;;;;;6.17;5.53;;;11.70;99.90;;;;;;5015162;28;20469;-41
2021/04/30 13:03:23;;;;;;;6.60;5.73;;;11.90;99.90;;;;;;5013546;28;20430;-43
2021/04/30 13:05:51;;;;;;;7.23;6.50;;;12.00;99.90;;;;;;5016742;28;20445;-42
2021/04/30 13:08:18;;;;;;;6.20;5.20;;;12.00;99.90;;;;;;5017188;28;20462;-42
2021/04/30 13:10:58;;;;;;;7.07;6.33;;;12.00;99.90;;;;;;5010980;28;20445;-44
2021/04/30 13:13:25;;;;;;;7.50;6.47;;;12.00;99.90;;;;;;4999299;28;20448;-47
2021/04/30 13:16:03;;;;;;;8.33;6.40;;;12.00;99.90;;;;;;4997590;28;20469;-43
2021/04/30 13:18:35;;;;;;;7.40;5.97;;;12.00;99.90;;;;;;4999043;28;20438;-41
2021/04/30 13:21:05;;;;;;;12.50;6.70;;;11.90;99.90;;;;;;4997954;28;20478;-41
2021/04/30 13:23:37;;;;;;;10.43;6.30;;;11.90;99.90;;;;;;4997315;28;20572;-42
2021/04/30 13:26:24;;;;;;;6.43;5.13;;;11.90;99.90;;;;;;4996061;28;20454;-42
2021/04/30 13:29:14;;;;;;;9.43;6.23;;;11.90;99.90;;;;;;4995269;28;20486;-42
2021/04/30 13:31:41;;;;;;;8.90;5.70;;;11.90;99.90;;;;;;4995557;28;20477;-41
2021/04/30 13:34:10;;;;;;;7.70;6.13;;;12.00;99.90;;;;;;4996282;28;20457;-41
2021/04/30 13:36:51;;;;;;;6.60;4.97;;;12.00;99.90;;;;;;4991989;28;20854;-42
2021/04/30 13:39:26;;;;;;;8.63;6.00;;;12.20;99.90;;;;;;4996049;28;20457;-43
2021/04/30 13:41:53;;;;;;;8.10;6.20;;;12.20;99.90;;;;;;4991685;28;20577;-41
2021/04/30 13:44:21;;;;;;;9.97;7.23;;;12.10;99.90;;;;;;4996962;28;20470;-42
2021/04/30 13:46:49;;;;;;;6.60;5.90;;;12.10;99.90;;;;;;4998698;28;20445;-41
2021/04/30 13:49:16;;;;;;;8.93;6.70;;;12.10;99.90;;;;;;4999133;28;20488;-42
2021/04/30 13:51:43;;;;;;;9.40;7.70;;;12.00;99.90;;;;;;4997062;28;20485;-42
2021/04/30 13:54:10;;;;;;;8.70;6.73;;;11.90;99.90;;;;;;4997635;28;20469;-42
2021/04/30 13:56:40;;;;;;;7.60;6.17;;;11.90;99.90;;;;;;4997982;28;21007;-42
2021/04/30 13:59:07;;;;;;;10.10;6.60;;;11.80;99.90;;;;;;4991660;28;20942;-41
2021/04/30 14:01:34;;;;;;;6.53;5.83;;;11.80;99.90;;;;;;4994180;28;20465;-42
2021/04/30 14:04:01;;;;;;;11.83;7.50;;;11.80;99.90;;;;;;4995519;28;20473;-42
2021/04/30 14:06:28;;;;;;;9.37;6.87;;;11.70;99.90;;;;;;4995841;28;20446;-43
2021/04/30 14:08:55;;;;;;;9.87;8.30;;;11.70;99.90;;;;;;4991480;28;20561;-44
2021/04/30 14:11:21;;;;;;;7.73;6.70;;;11.70;99.90;;;;;;4994303;28;20450;-43
2021/04/30 14:13:48;;;;;;;8.30;6.97;;;11.60;99.90;;;;;;4994948;28;20474;-43
2021/04/30 14:16:14;;;;;;;7.70;6.90;;;11.60;99.90;;;;;;4996273;28;20531;-42
2021/04/30 14:18:41;;;;;;;10.80;7.77;;;11.60;99.90;;;;;;4992731;28;20453;-43
2021/04/30 14:21:09;;;;;;;8.23;6.17;;;11.60;99.90;;;;;;4996152;28;20474;-43
2021/04/30 14:23:35;;;;;;;11.90;7.57;;;11.50;99.90;;;;;;4999856;28;20508;-42
2021/04/30 14:26:05;;;;;;;9.83;6.83;;;11.50;99.90;;;;;;4998181;28;20529;-42
2021/04/30 14:28:32;;;;;;;7.57;6.50;;;11.50;99.90;;;;;;4992946;28;20576;-42
2021/04/30 14:30:58;;;;;;;8.03;6.67;;;11.40;99.90;;;;;;4996963;28;20556;-42
2021/04/30 14:33:25;;;;;;;6.97;6.23;;;11.50;99.90;;;;;;4997078;28;20446;-43
2021/04/30 14:35:51;;;;;;;6.80;5.87;;;11.50;99.90;;;;;;4997130;28;20461;-42
2021/04/30 14:38:19;;;;;;;10.37;6.30;;;11.50;99.90;;;;;;4992920;28;20450;-47
2021/04/30 14:40:46;;;;;;;9.57;7.73;;;11.50;99.90;;;;;;4994720;28;20913;-41
2021/04/30 14:43:13;;;;;;;8.83;7.50;;;11.60;99.90;;;;;;4993376;28;20470;-42
2021/04/30 14:45:40;;;;;;;9.47;7.03;;;11.50;99.90;;;;;;4995632;28;20541;-41
2021/04/30 14:48:08;;;;;;;9.00;7.27;;;11.50;99.90;;;;;;4996996;28;20484;-42
2021/04/30 14:50:36;;;;;;;7.87;6.50;;;11.50;99.90;;;;;;4997527;28;20454;-42
2021/04/30 14:53:03;;;;;;;8.23;7.37;;;11.50;99.90;;;;;;4996546;28;20438;-42
2021/04/30 14:55:30;;;;;;;10.97;6.90;;;11.50;99.90;;;;;;4996035;28;20474;-42
2021/04/30 14:57:57;;;;;;;12.83;7.53;;;11.50;99.90;;;;;;4996844;28;20533;-43
2021/04/30 15:00:25;;;;;;;10.17;7.10;;;11.50;99.90;;;;;;4996869;28;20863;-42
2021/04/30 15:02:51;;;;;;;12.20;6.47;;;11.50;99.90;;;;;;4996553;28;20834;-42
2021/04/30 15:05:21;;;;;;;7.87;6.50;;;11.60;99.90;;;;;;4996453;28;20453;-42
2021/04/30 15:07:48;;;;;;;11.23;6.90;;;11.70;99.90;;;;;;4997721;28;20505;-42
2021/04/30 15:10:15;;;;;;;9.30;7.00;;;11.70;99.90;;;;;;4997973;28;20477;-43
2021/04/30 15:12:43;;;;;;;12.70;6.33;;;11.70;99.90;;;;;;4998548;28;20540;-42
2021/04/30 15:15:13;;;;;;;8.57;6.23;;;11.60;99.90;;;;;;5001034;28;20906;-41
2021/04/30 15:17:39;;;;;;;8.07;6.40;;;11.60;99.90;;;;;;4993804;28;20453;-41
2021/04/30 15:20:09;;;;;;;7.93;6.53;;;11.60;99.90;;;;;;4989889;28;20465;-41
2021/04/30 15:22:37;;;;;;;9.40;7.00;;;11.60;99.90;;;;;;4993845;28;20830;-42
2021/04/30 15:25:04;;;;;;;7.50;6.77;;;11.60;99.90;;;;;;4992312;28;20925;-53
2021/04/30 15:27:30;;;;;;;10.47;7.27;;;11.60;99.90;;;;;;4993783;28;20481;-41
2021/04/30 15:29:58;;;;;;;9.63;7.40;;;11.50;99.90;;;;;;4993671;28;20481;-41
2021/04/30 15:32:25;;;;;;;12.30;6.40;;;11.60;99.90;;;;;;4994435;28;20927;-41
2021/04/30 15:34:51;;;;;;;8.33;6.90;;;11.50;99.90;;;;;;4993061;28;20618;-41
2021/04/30 15:37:18;;;;;;;7.90;6.93;;;11.90;99.90;;;;;;4995623;28;20508;-41
2021/04/30 15:39:44;;;;;;;9.73;6.40;;;11.90;99.90;;;;;;4996472;28;20434;-41
2021/04/30 15:42:11;;;;;;;9.17;7.00;;;11.80;99.90;;;;;;4996028;28;20469;-41
2021/04/30 15:44:38;;;;;;;8.17;6.80;;;11.80;99.90;;;;;;4994762;28;20442;-41
2021/04/30 15:47:06;;;;;;;8.67;7.60;;;11.70;99.90;;;;;;4996858;28;20458;-41
2021/04/30 15:49:33;;;;;;;8.60;6.67;;;11.70;99.90;;;;;;4996638;28;20469;-41
2021/04/30 15:51:59;;;;;;;8.77;6.97;;;11.70;99.90;;;;;;4996860;28;20981;-42
2021/04/30 15:54:26;;;;;;;10.33;6.53;;;11.70;99.90;;;;;;4997540;28;20512;-42
2021/04/30 15:56:53;;;;;;;7.73;6.43;;;11.70;99.90;;;;;;4996936;28;20538;-42
2021/04/30 15:59:19;;;;;;;11.67;7.13;;;11.70;99.90;;;;;;4996688;28;20912;-41
2021/04/30 16:01:45;;;;;;;8.83;6.67;;;11.60;99.90;;;;;;4995505;28;20469;-42
2021/04/30 16:04:12;;;;;;;6.63;5.90;;;11.60;99.90;;;;;;4995443;28;20481;-41
2021/04/30 16:06:39;;;;;;;9.53;6.30;;;11.60;99.90;;;;;;4999607;28;20438;-42
2021/04/30 16:09:05;;;;;;;8.33;6.30;;;11.60;99.90;;;;;;4997453;28;20492;-41
2021/04/30 16:11:32;;;;;;;8.50;6.53;;;11.60;99.90;;;;;;4998435;28;20521;-42
2021/04/30 16:14:00;;;;;;;10.00;6.70;;;11.70;99.90;;;;;;5000631;28;20450;-44
2021/04/30 16:16:26;;;;;;;8.80;6.57;;;11.70;99.90;;;;;;4996281;28;20446;-56
2021/04/30 16:18:53;;;;;;;9.30;6.60;;;11.70;99.90;;;;;;4997369;28;20458;-58
2021/04/30 16:21:21;;;;;;;10.10;5.97;;;11.70;99.90;;;;;;4996713;28;20457;-57
2021/04/30 16:23:49;;;;;;;13.07;6.80;;;11.70;99.90;;;;;;4993791;28;20468;-51
2021/04/30 16:26:16;;;;;;;9.07;5.87;;;11.70;99.90;;;;;;4993743;28;20450;-56
2021/04/30 16:28:42;;;;;;;7.80;5.80;;;11.70;99.90;;;;;;4994197;28;20477;-55
2021/04/30 16:31:10;;;;;;;6.53;5.37;;;11.70;99.90;;;;;;4998099;28;20465;-57
2021/04/30 16:33:37;;;;;;;8.67;5.03;;;11.70;99.90;;;;;;5002587;28;20457;-56
2021/04/30 16:36:05;;;;;;;8.60;6.20;;;11.70;99.90;;;;;;5019295;28;20508;-58
2021/04/30 16:38:33;;;;;;;6.43;4.87;;;11.70;99.90;;;;;;5019603;28;20789;-57
2021/04/30 16:40:59;;;;;;;6.90;6.20;;;11.60;99.90;;;;;;5019940;28;20439;-58
2021/04/30 16:43:28;;;;;;;8.77;6.00;;;11.60;99.90;;;;;;5019325;28;20485;-57
2021/04/30 16:48:36;;;;;;;14.47;6.70;;;11.60;99.90;;;;;;5018827;28;20526;-54
2021/04/30 16:51:02;;;;;;;6.40;5.30;;;11.60;99.90;;;;;;5019266;28;20457;-54
2021/04/30 16:53:29;;;;;;;7.43;5.27;;;11.50;99.90;;;;;;5019195;28;20453;-55
2021/04/30 16:55:56;;;;;;;11.57;6.67;;;11.50;99.90;;;;;;5019464;28;20433;-61
2021/04/30 16:58:22;;;;;;;7.57;5.90;;;11.50;99.90;;;;;;5019754;28;20473;-57
2021/04/30 17:00:50;;;;;;;9.27;6.33;;;11.50;99.90;;;;;;5019251;28;20454;-57
2021/04/30 17:03:17;;;;;;;7.03;5.10;;;11.50;99.90;;;;;;5019182;28;20437;-57
2021/04/30 17:05:43;;;;;;;7.80;6.10;;;11.40;99.90;;;;;;5019295;28;20493;-56
2021/04/30 17:08:10;;;;;;;10.07;6.60;;;11.40;99.90;;;;;;5019664;28;20434;-57
2021/04/30 17:10:36;;;;;;;9.10;5.30;;;11.50;99.90;;;;;;5019877;28;20486;-60
2021/04/30 17:13:04;;;;;;;11.57;6.27;;;11.50;99.90;;;;;;5019647;28;20442;-56
2021/04/30 17:15:30;;;;;;;16.20;6.90;;;11.50;99.90;;;;;;5018813;28;20477;-58
2021/04/30 17:17:56;;;;;;;9.97;6.80;;;11.40;99.90;;;;;;5019425;28;20450;-58
2021/04/30 17:20:24;;;;;;;10.50;6.23;;;11.40;99.90;;;;;;5018708;28;20441;-50
2021/04/30 17:22:51;;;;;;;7.57;5.43;;;11.40;99.90;;;;;;5018825;28;20501;-56
2021/04/30 17:25:17;;;;;;;9.20;5.90;;;11.40;99.90;;;;;;5019335;28;20518;-56
2021/04/30 17:27:44;;;;;;;10.97;6.13;;;11.40;99.90;;;;;;5019213;28;20538;-55
2021/04/30 17:30:12;;;;;;;7.87;6.00;;;11.40;99.90;;;;;;5018918;28;20465;-55
2021/04/30 17:32:39;;;;;;;8.53;5.97;;;11.40;99.90;;;;;;5014972;28;20469;-56
2021/04/30 17:35:06;;;;;;;9.60;6.87;;;11.40;99.90;;;;;;5000505;28;20454;-54
2021/04/30 17:37:33;;;;;;;9.00;6.80;;;11.40;99.90;;;;;;4998268;28;20857;-56
2021/04/30 17:39:59;;;;;;;10.17;7.07;;;11.30;99.90;;;;;;4996718;28;20434;-54
2021/04/30 17:42:27;;;;;;;15.70;7.27;;;11.40;99.90;;;;;;4997810;28;20454;-57
2021/04/30 17:44:53;;;;;;;9.07;7.03;;;11.40;99.90;;;;;;4995056;28;20457;-56
2021/04/30 17:47:21;;;;;;;9.13;5.93;;;11.40;99.90;;;;;;5000315;28;20446;-56
2021/04/30 17:49:47;;;;;;;8.97;7.00;;;11.40;99.90;;;;;;5000744;28;20505;-58
2021/04/30 17:52:13;;;;;;;10.40;6.40;;;11.40;99.90;;;;;;4998461;28;20449;-58
2021/04/30 17:54:40;;;;;;;11.23;7.00;;;11.30;99.90;;;;;;4998490;28;20521;-56
2021/04/30 17:57:06;;;;;;;11.67;6.87;;;11.30;99.90;;;;;;4999840;28;20446;-52
2021/04/30 17:59:33;;;;;;;12.37;7.60;;;11.30;99.90;;;;;;4998905;28;20469;-54
2021/04/30 18:01:59;;;;;;;12.47;6.70;;;11.30;99.90;;;;;;5000843;28;20450;-53
2021/04/30 18:04:26;;;;;;;11.27;6.47;;;11.40;99.90;;;;;;4998955;28;20450;-54
2021/04/30 18:06:53;;;;;;;12.33;7.53;;;11.30;99.90;;;;;;4996450;28;20457;-59
2021/04/30 18:09:19;;;;;;;12.57;6.90;;;11.30;99.90;;;;;;5000643;28;20484;-58
2021/04/30 18:11:47;;;;;;;11.37;8.10;;;11.20;99.90;;;;;;4996600;28;20460;-56
2021/04/30 18:14:14;;;;;;;12.07;7.90;;;11.20;99.90;;;;;;4995939;28;20473;-58
2021/04/30 18:16:40;;;;;;;14.10;6.30;;;11.10;99.90;;;;;;4996768;28;20851;-54
2021/04/30 18:19:06;;;;;;;6.37;5.57;;;11.10;99.90;;;;;;4996047;28;20922;-56